sensor_id;sensor_type;location;lat;lon;timestamp;P1;durP1;ratioP1;P2;durP2;ratioP2
29634;SDS011;16557;54.762;56.068;2022-10-31T00:01:38;11.45;;;7.80;;
29634;SDS011;16557;54.762;56.068;2022-10-31T00:04:08;10.78;;;7.37;;
29634;SDS011;16557;54.762;56.068;2022-10-31T00:06:37;11.68;;;7.90;;
29634;SDS011;16557;54.762;56.068;2022-10-31T00:09:06;10.10;;;6.78;;
29634;SDS011;16557;54.762;56.068;2022-10-31T00:11:37;9.73;;;6.17;;
29634;SDS011;16557;54.762;56.068;2022-10-31T00:14:06;9.70;;;6.67;;
29634;SDS011;16557;54.762;56.068;2022-10-31T00:16:35;10.05;;;6.22;;
29634;SDS011;16557;54.762;56.068;2022-10-31T00:19:05;8.60;;;6.08;;
29634;SDS011;16557;54.762;56.068;2022-10-31T00:21:35;10.45;;;7.30;;
29634;SDS011;16557;54.762;56.068;2022-10-31T00:24:05;8.08;;;5.80;;
29634;SDS011;16557;54.762;56.068;2022-10-31T00:26:34;8.95;;;6.33;;
29634;SDS011;16557;54.762;56.068;2022-10-31T00:29:03;9.00;;;6.28;;
29634;SDS011;16557;54.762;56.068;2022-10-31T00:31:32;9.35;;;6.17;;
29634;SDS011;16557;54.762;56.068;2022-10-31T00:34:02;8.50;;;6.28;;
29634;SDS011;16557;54.762;56.068;2022-10-31T00:36:31;10.30;;;6.78;;
29634;SDS011;16557;54.762;56.068;2022-10-31T00:39:01;8.78;;;6.35;;
29634;SDS011;16557;54.762;56.068;2022-10-31T00:41:30;8.38;;;6.42;;
29634;SDS011;16557;54.762;56.068;2022-10-31T00:44:00;10.43;;;7.45;;
29634;SDS011;16557;54.762;56.068;2022-10-31T00:46:29;9.55;;;6.80;;
29634;SDS011;16557;54.762;56.068;2022-10-31T00:48:58;8.83;;;7.00;;
29634;SDS011;16557;54.762;56.068;2022-10-31T00:51:27;8.35;;;6.58;;
29634;SDS011;16557;54.762;56.068;2022-10-31T00:53:56;8.03;;;6.22;;
29634;SDS011;16557;54.762;56.068;2022-10-31T00:56:25;8.73;;;6.17;;
29634;SDS011;16557;54.762;56.068;2022-10-31T00:58:55;9.68;;;6.90;;
29634;SDS011;16557;54.762;56.068;2022-10-31T01:01:24;8.53;;;5.50;;
29634;SDS011;16557;54.762;56.068;2022-10-31T01:03:53;8.48;;;6.37;;
29634;SDS011;16557;54.762;56.068;2022-10-31T01:06:25;8.73;;;6.62;;
29634;SDS011;16557;54.762;56.068;2022-10-31T01:08:54;7.80;;;6.20;;
29634;SDS011;16557;54.762;56.068;2022-10-31T01:11:24;8.70;;;5.67;;
29634;SDS011;16557;54.762;56.068;2022-10-31T01:13:53;7.80;;;6.22;;
29634;SDS011;16557;54.762;56.068;2022-10-31T01:16:23;7.22;;;5.87;;
29634;SDS011;16557;54.762;56.068;2022-10-31T01:18:54;7.15;;;5.55;;
29634;SDS011;16557;54.762;56.068;2022-10-31T01:21:24;7.40;;;6.17;;
29634;SDS011;16557;54.762;56.068;2022-10-31T01:23:55;7.90;;;6.12;;
29634;SDS011;16557;54.762;56.068;2022-10-31T01:26:26;8.95;;;6.17;;
29634;SDS011;16557;54.762;56.068;2022-10-31T01:28:58;7.93;;;6.33;;
29634;SDS011;16557;54.762;56.068;2022-10-31T01:31:36;7.40;;;5.70;;
29634;SDS011;16557;54.762;56.068;2022-10-31T01:34:06;8.40;;;6.95;;
29634;SDS011;16557;54.762;56.068;2022-10-31T01:36:37;9.63;;;6.65;;
29634;SDS011;16557;54.762;56.068;2022-10-31T01:39:08;9.65;;;7.25;;
29634;SDS011;16557;54.762;56.068;2022-10-31T01:41:42;9.55;;;7.67;;
29634;SDS011;16557;54.762;56.068;2022-10-31T01:54:33;9.55;;;6.67;;
29634;SDS011;16557;54.762;56.068;2022-10-31T01:57:04;9.88;;;7.15;;
29634;SDS011;16557;54.762;56.068;2022-10-31T01:59:36;9.00;;;7.37;;
29634;SDS011;16557;54.762;56.068;2022-10-31T02:02:07;10.28;;;7.70;;
29634;SDS011;16557;54.762;56.068;2022-10-31T02:04:37;9.83;;;7.20;;
29634;SDS011;16557;54.762;56.068;2022-10-31T02:07:22;10.23;;;7.67;;
29634;SDS011;16557;54.762;56.068;2022-10-31T02:09:51;8.60;;;6.65;;
29634;SDS011;16557;54.762;56.068;2022-10-31T02:12:21;9.33;;;7.22;;
29634;SDS011;16557;54.762;56.068;2022-10-31T02:14:50;9.10;;;7.28;;
29634;SDS011;16557;54.762;56.068;2022-10-31T02:17:19;12.35;;;8.23;;
29634;SDS011;16557;54.762;56.068;2022-10-31T02:19:54;9.78;;;8.38;;
29634;SDS011;16557;54.762;56.068;2022-10-31T02:22:26;9.63;;;7.53;;
29634;SDS011;16557;54.762;56.068;2022-10-31T02:30:20;11.28;;;8.65;;
29634;SDS011;16557;54.762;56.068;2022-10-31T02:38:50;9.60;;;7.00;;
29634;SDS011;16557;54.762;56.068;2022-10-31T02:41:37;9.38;;;6.95;;
29634;SDS011;16557;54.762;56.068;2022-10-31T02:44:30;9.20;;;7.78;;
29634;SDS011;16557;54.762;56.068;2022-10-31T02:47:08;10.98;;;8.73;;
29634;SDS011;16557;54.762;56.068;2022-10-31T02:52:19;12.40;;;9.88;;
29634;SDS011;16557;54.762;56.068;2022-10-31T02:54:52;8.75;;;7.65;;
29634;SDS011;16557;54.762;56.068;2022-10-31T02:57:25;11.80;;;8.35;;
29634;SDS011;16557;54.762;56.068;2022-10-31T03:00:00;10.98;;;8.05;;
29634;SDS011;16557;54.762;56.068;2022-10-31T03:08:24;10.18;;;8.13;;
29634;SDS011;16557;54.762;56.068;2022-10-31T03:11:03;10.13;;;7.95;;
29634;SDS011;16557;54.762;56.068;2022-10-31T03:13:39;10.32;;;9.05;;
29634;SDS011;16557;54.762;56.068;2022-10-31T03:16:23;10.50;;;7.95;;
29634;SDS011;16557;54.762;56.068;2022-10-31T03:19:01;9.38;;;8.18;;
29634;SDS011;16557;54.762;56.068;2022-10-31T03:21:36;11.85;;;8.93;;
29634;SDS011;16557;54.762;56.068;2022-10-31T03:24:10;9.50;;;7.87;;
29634;SDS011;16557;54.762;56.068;2022-10-31T03:26:42;9.40;;;8.03;;
29634;SDS011;16557;54.762;56.068;2022-10-31T03:29:13;10.60;;;8.28;;
29634;SDS011;16557;54.762;56.068;2022-10-31T03:31:47;10.45;;;8.30;;
29634;SDS011;16557;54.762;56.068;2022-10-31T03:34:18;11.12;;;8.05;;
29634;SDS011;16557;54.762;56.068;2022-10-31T03:36:49;9.10;;;7.47;;
29634;SDS011;16557;54.762;56.068;2022-10-31T03:39:20;9.93;;;8.28;;
29634;SDS011;16557;54.762;56.068;2022-10-31T03:44:33;9.53;;;7.15;;
29634;SDS011;16557;54.762;56.068;2022-10-31T03:47:04;11.75;;;7.55;;
29634;SDS011;16557;54.762;56.068;2022-10-31T03:49:33;9.73;;;7.80;;
29634;SDS011;16557;54.762;56.068;2022-10-31T03:55:13;10.05;;;8.35;;
29634;SDS011;16557;54.762;56.068;2022-10-31T03:57:41;9.23;;;7.58;;
29634;SDS011;16557;54.762;56.068;2022-10-31T04:00:21;9.55;;;7.70;;
29634;SDS011;16557;54.762;56.068;2022-10-31T04:02:55;9.93;;;7.75;;
29634;SDS011;16557;54.762;56.068;2022-10-31T04:05:26;8.18;;;6.47;;
29634;SDS011;16557;54.762;56.068;2022-10-31T04:07:56;7.75;;;6.08;;
29634;SDS011;16557;54.762;56.068;2022-10-31T04:10:26;7.97;;;5.97;;
29634;SDS011;16557;54.762;56.068;2022-10-31T04:13:00;7.05;;;5.95;;
29634;SDS011;16557;54.762;56.068;2022-10-31T04:15:29;7.00;;;5.75;;
29634;SDS011;16557;54.762;56.068;2022-10-31T04:18:00;6.65;;;5.87;;
29634;SDS011;16557;54.762;56.068;2022-10-31T04:20:33;7.58;;;5.92;;
29634;SDS011;16557;54.762;56.068;2022-10-31T04:23:04;6.60;;;5.40;;
29634;SDS011;16557;54.762;56.068;2022-10-31T04:25:35;7.83;;;5.47;;
29634;SDS011;16557;54.762;56.068;2022-10-31T04:28:04;7.25;;;5.25;;
29634;SDS011;16557;54.762;56.068;2022-10-31T04:30:33;6.30;;;5.37;;
29634;SDS011;16557;54.762;56.068;2022-10-31T04:33:02;7.35;;;5.70;;
29634;SDS011;16557;54.762;56.068;2022-10-31T04:35:32;7.65;;;5.22;;
29634;SDS011;16557;54.762;56.068;2022-10-31T04:38:01;6.97;;;5.00;;
29634;SDS011;16557;54.762;56.068;2022-10-31T04:40:30;6.10;;;5.12;;
29634;SDS011;16557;54.762;56.068;2022-10-31T04:42:59;6.60;;;5.33;;
29634;SDS011;16557;54.762;56.068;2022-10-31T04:45:31;5.75;;;4.87;;
29634;SDS011;16557;54.762;56.068;2022-10-31T04:48:01;6.12;;;4.92;;
29634;SDS011;16557;54.762;56.068;2022-10-31T04:50:30;5.78;;;4.20;;
29634;SDS011;16557;54.762;56.068;2022-10-31T04:52:59;4.92;;;4.03;;
29634;SDS011;16557;54.762;56.068;2022-10-31T04:55:28;5.90;;;4.62;;
29634;SDS011;16557;54.762;56.068;2022-10-31T04:57:58;5.15;;;4.28;;
29634;SDS011;16557;54.762;56.068;2022-10-31T05:00:27;4.70;;;4.20;;
29634;SDS011;16557;54.762;56.068;2022-10-31T05:02:57;5.25;;;4.37;;
29634;SDS011;16557;54.762;56.068;2022-10-31T05:05:28;6.22;;;4.03;;
29634;SDS011;16557;54.762;56.068;2022-10-31T05:07:58;5.22;;;3.85;;
29634;SDS011;16557;54.762;56.068;2022-10-31T05:10:28;5.60;;;4.22;;
29634;SDS011;16557;54.762;56.068;2022-10-31T05:12:59;7.20;;;4.87;;
29634;SDS011;16557;54.762;56.068;2022-10-31T05:15:29;5.00;;;4.47;;
29634;SDS011;16557;54.762;56.068;2022-10-31T05:17:58;6.42;;;4.40;;
29634;SDS011;16557;54.762;56.068;2022-10-31T05:20:29;5.60;;;4.67;;
29634;SDS011;16557;54.762;56.068;2022-10-31T05:22:59;4.80;;;4.30;;
29634;SDS011;16557;54.762;56.068;2022-10-31T05:25:28;5.25;;;4.35;;
29634;SDS011;16557;54.762;56.068;2022-10-31T05:27:58;6.83;;;4.83;;
29634;SDS011;16557;54.762;56.068;2022-10-31T05:30:28;4.70;;;4.15;;
29634;SDS011;16557;54.762;56.068;2022-10-31T05:32:58;5.75;;;5.15;;
29634;SDS011;16557;54.762;56.068;2022-10-31T05:35:29;5.60;;;4.87;;
29634;SDS011;16557;54.762;56.068;2022-10-31T05:37:59;5.83;;;4.50;;
29634;SDS011;16557;54.762;56.068;2022-10-31T05:40:29;4.50;;;4.05;;
29634;SDS011;16557;54.762;56.068;2022-10-31T05:42:58;6.08;;;5.00;;
29634;SDS011;16557;54.762;56.068;2022-10-31T05:45:27;7.05;;;5.20;;
29634;SDS011;16557;54.762;56.068;2022-10-31T05:48:00;12.45;;;9.05;;
29634;SDS011;16557;54.762;56.068;2022-10-31T05:50:30;8.33;;;5.90;;
29634;SDS011;16557;54.762;56.068;2022-10-31T05:53:00;7.35;;;5.00;;
29634;SDS011;16557;54.762;56.068;2022-10-31T05:55:31;6.72;;;5.42;;
29634;SDS011;16557;54.762;56.068;2022-10-31T05:58:01;7.37;;;5.40;;
29634;SDS011;16557;54.762;56.068;2022-10-31T06:00:30;5.28;;;4.72;;
29634;SDS011;16557;54.762;56.068;2022-10-31T06:03:02;6.65;;;5.40;;
29634;SDS011;16557;54.762;56.068;2022-10-31T06:05:33;6.30;;;5.17;;
29634;SDS011;16557;54.762;56.068;2022-10-31T06:08:02;7.00;;;5.17;;
29634;SDS011;16557;54.762;56.068;2022-10-31T06:10:31;6.60;;;5.62;;
29634;SDS011;16557;54.762;56.068;2022-10-31T06:13:01;7.03;;;5.60;;
29634;SDS011;16557;54.762;56.068;2022-10-31T06:15:30;6.78;;;5.58;;
29634;SDS011;16557;54.762;56.068;2022-10-31T06:18:00;7.08;;;5.40;;
29634;SDS011;16557;54.762;56.068;2022-10-31T06:20:37;7.62;;;5.85;;
29634;SDS011;16557;54.762;56.068;2022-10-31T06:23:06;9.13;;;6.50;;
29634;SDS011;16557;54.762;56.068;2022-10-31T06:25:35;6.97;;;5.35;;
29634;SDS011;16557;54.762;56.068;2022-10-31T06:28:04;6.47;;;5.42;;
29634;SDS011;16557;54.762;56.068;2022-10-31T06:30:34;6.85;;;5.85;;
29634;SDS011;16557;54.762;56.068;2022-10-31T06:33:04;6.50;;;5.22;;
29634;SDS011;16557;54.762;56.068;2022-10-31T06:35:33;6.47;;;5.50;;
29634;SDS011;16557;54.762;56.068;2022-10-31T06:38:02;7.42;;;6.40;;
29634;SDS011;16557;54.762;56.068;2022-10-31T06:40:31;7.05;;;6.03;;
29634;SDS011;16557;54.762;56.068;2022-10-31T06:43:01;7.10;;;5.33;;
29634;SDS011;16557;54.762;56.068;2022-10-31T06:45:30;7.20;;;6.25;;
29634;SDS011;16557;54.762;56.068;2022-10-31T06:47:59;7.97;;;6.37;;
29634;SDS011;16557;54.762;56.068;2022-10-31T06:50:28;9.28;;;6.78;;
29634;SDS011;16557;54.762;56.068;2022-10-31T06:52:58;6.83;;;6.08;;
29634;SDS011;16557;54.762;56.068;2022-10-31T06:55:27;8.60;;;6.53;;
29634;SDS011;16557;54.762;56.068;2022-10-31T06:58:00;7.03;;;6.30;;
29634;SDS011;16557;54.762;56.068;2022-10-31T07:00:29;6.72;;;5.80;;
29634;SDS011;16557;54.762;56.068;2022-10-31T07:03:06;7.40;;;6.15;;
29634;SDS011;16557;54.762;56.068;2022-10-31T07:05:37;8.63;;;6.58;;
29634;SDS011;16557;54.762;56.068;2022-10-31T07:08:07;11.00;;;8.73;;
29634;SDS011;16557;54.762;56.068;2022-10-31T07:10:39;8.15;;;6.25;;
29634;SDS011;16557;54.762;56.068;2022-10-31T07:13:13;9.78;;;7.08;;
29634;SDS011;16557;54.762;56.068;2022-10-31T07:15:42;8.18;;;6.70;;
29634;SDS011;16557;54.762;56.068;2022-10-31T07:18:12;15.45;;;10.68;;
29634;SDS011;16557;54.762;56.068;2022-10-31T07:20:41;8.55;;;7.45;;
29634;SDS011;16557;54.762;56.068;2022-10-31T07:23:10;10.53;;;6.55;;
29634;SDS011;16557;54.762;56.068;2022-10-31T07:25:40;17.55;;;12.50;;
29634;SDS011;16557;54.762;56.068;2022-10-31T07:28:09;14.35;;;10.28;;
29634;SDS011;16557;54.762;56.068;2022-10-31T07:30:39;9.90;;;8.30;;
29634;SDS011;16557;54.762;56.068;2022-10-31T07:33:08;12.43;;;10.18;;
29634;SDS011;16557;54.762;56.068;2022-10-31T07:35:37;12.55;;;9.45;;
29634;SDS011;16557;54.762;56.068;2022-10-31T07:38:07;12.07;;;9.50;;
29634;SDS011;16557;54.762;56.068;2022-10-31T07:40:37;12.10;;;9.70;;
29634;SDS011;16557;54.762;56.068;2022-10-31T07:43:06;12.40;;;9.35;;
29634;SDS011;16557;54.762;56.068;2022-10-31T07:45:36;12.63;;;9.35;;
29634;SDS011;16557;54.762;56.068;2022-10-31T07:48:05;13.43;;;9.20;;
29634;SDS011;16557;54.762;56.068;2022-10-31T07:50:34;9.68;;;8.38;;
29634;SDS011;16557;54.762;56.068;2022-10-31T07:53:04;12.95;;;9.23;;
29634;SDS011;16557;54.762;56.068;2022-10-31T07:55:37;12.85;;;9.50;;
29634;SDS011;16557;54.762;56.068;2022-10-31T07:58:11;11.10;;;8.05;;
29634;SDS011;16557;54.762;56.068;2022-10-31T08:00:43;10.93;;;8.75;;
29634;SDS011;16557;54.762;56.068;2022-10-31T08:03:18;10.28;;;8.78;;
29634;SDS011;16557;54.762;56.068;2022-10-31T08:05:45;11.22;;;9.35;;
29634;SDS011;16557;54.762;56.068;2022-10-31T08:08:15;14.03;;;9.10;;
29634;SDS011;16557;54.762;56.068;2022-10-31T08:10:44;9.70;;;7.95;;
29634;SDS011;16557;54.762;56.068;2022-10-31T08:13:13;12.70;;;10.35;;
29634;SDS011;16557;54.762;56.068;2022-10-31T08:15:43;13.60;;;9.53;;
29634;SDS011;16557;54.762;56.068;2022-10-31T08:18:13;12.63;;;9.78;;
29634;SDS011;16557;54.762;56.068;2022-10-31T08:20:43;11.40;;;9.05;;
29634;SDS011;16557;54.762;56.068;2022-10-31T08:23:12;11.73;;;9.08;;
29634;SDS011;16557;54.762;56.068;2022-10-31T08:25:43;11.63;;;9.68;;
29634;SDS011;16557;54.762;56.068;2022-10-31T08:28:14;11.60;;;9.63;;
29634;SDS011;16557;54.762;56.068;2022-10-31T08:30:43;11.28;;;9.25;;
29634;SDS011;16557;54.762;56.068;2022-10-31T08:33:15;14.43;;;10.95;;
29634;SDS011;16557;54.762;56.068;2022-10-31T08:35:45;15.60;;;10.98;;
29634;SDS011;16557;54.762;56.068;2022-10-31T08:38:15;14.07;;;10.65;;
29634;SDS011;16557;54.762;56.068;2022-10-31T08:40:47;12.78;;;9.73;;
29634;SDS011;16557;54.762;56.068;2022-10-31T08:43:16;15.65;;;10.32;;
29634;SDS011;16557;54.762;56.068;2022-10-31T08:45:53;12.68;;;10.30;;
29634;SDS011;16557;54.762;56.068;2022-10-31T08:48:17;13.55;;;9.58;;
29634;SDS011;16557;54.762;56.068;2022-10-31T08:50:46;14.83;;;10.90;;
29634;SDS011;16557;54.762;56.068;2022-10-31T08:53:16;14.10;;;10.32;;
29634;SDS011;16557;54.762;56.068;2022-10-31T08:55:46;14.43;;;9.65;;
29634;SDS011;16557;54.762;56.068;2022-10-31T08:58:17;12.85;;;10.23;;
29634;SDS011;16557;54.762;56.068;2022-10-31T09:00:49;13.30;;;9.53;;
29634;SDS011;16557;54.762;56.068;2022-10-31T09:03:19;13.28;;;9.40;;
29634;SDS011;16557;54.762;56.068;2022-10-31T09:05:50;11.90;;;8.85;;
29634;SDS011;16557;54.762;56.068;2022-10-31T09:08:21;11.63;;;8.70;;
29634;SDS011;16557;54.762;56.068;2022-10-31T09:10:50;12.13;;;7.72;;
29634;SDS011;16557;54.762;56.068;2022-10-31T09:13:20;12.28;;;8.90;;
29634;SDS011;16557;54.762;56.068;2022-10-31T09:15:50;17.25;;;11.83;;
29634;SDS011;16557;54.762;56.068;2022-10-31T09:18:22;11.25;;;7.70;;
29634;SDS011;16557;54.762;56.068;2022-10-31T09:20:51;9.28;;;6.85;;
29634;SDS011;16557;54.762;56.068;2022-10-31T09:23:21;9.83;;;6.25;;
29634;SDS011;16557;54.762;56.068;2022-10-31T09:25:51;10.03;;;6.45;;
29634;SDS011;16557;54.762;56.068;2022-10-31T09:30:53;9.75;;;7.17;;
29634;SDS011;16557;54.762;56.068;2022-10-31T09:33:23;7.53;;;5.33;;
29634;SDS011;16557;54.762;56.068;2022-10-31T09:35:52;6.35;;;4.80;;
29634;SDS011;16557;54.762;56.068;2022-10-31T09:38:24;7.60;;;4.97;;
29634;SDS011;16557;54.762;56.068;2022-10-31T09:43:55;6.72;;;4.78;;
29634;SDS011;16557;54.762;56.068;2022-10-31T09:49:14;5.10;;;3.72;;
29634;SDS011;16557;54.762;56.068;2022-10-31T09:51:55;5.08;;;3.45;;
29634;SDS011;16557;54.762;56.068;2022-10-31T09:54:36;5.80;;;3.42;;
29634;SDS011;16557;54.762;56.068;2022-10-31T09:57:10;4.42;;;3.42;;
29634;SDS011;16557;54.762;56.068;2022-10-31T09:59:39;5.03;;;3.40;;
29634;SDS011;16557;54.762;56.068;2022-10-31T10:04:55;4.70;;;3.20;;
29634;SDS011;16557;54.762;56.068;2022-10-31T10:32:42;5.78;;;3.67;;
29634;SDS011;16557;54.762;56.068;2022-10-31T10:38:09;6.15;;;4.00;;
29634;SDS011;16557;54.762;56.068;2022-10-31T10:40:32;8.25;;;4.42;;
29634;SDS011;16557;54.762;56.068;2022-10-31T10:43:12;8.23;;;5.65;;
29634;SDS011;16557;54.762;56.068;2022-10-31T10:46:04;5.80;;;3.33;;
29634;SDS011;16557;54.762;56.068;2022-10-31T10:59:52;7.10;;;5.03;;
29634;SDS011;16557;54.762;56.068;2022-10-31T11:02:22;6.97;;;4.67;;
29634;SDS011;16557;54.762;56.068;2022-10-31T11:04:57;7.15;;;4.92;;
29634;SDS011;16557;54.762;56.068;2022-10-31T11:07:38;7.22;;;4.83;;
29634;SDS011;16557;54.762;56.068;2022-10-31T11:10:12;6.03;;;4.85;;
29634;SDS011;16557;54.762;56.068;2022-10-31T11:12:45;7.25;;;5.10;;
29634;SDS011;16557;54.762;56.068;2022-10-31T11:15:28;8.30;;;5.80;;
29634;SDS011;16557;54.762;56.068;2022-10-31T11:18:00;9.98;;;6.05;;
29634;SDS011;16557;54.762;56.068;2022-10-31T11:20:34;7.33;;;5.40;;
29634;SDS011;16557;54.762;56.068;2022-10-31T11:23:17;8.30;;;5.97;;
29634;SDS011;16557;54.762;56.068;2022-10-31T11:26:00;9.75;;;5.83;;
29634;SDS011;16557;54.762;56.068;2022-10-31T11:28:31;8.23;;;5.47;;
29634;SDS011;16557;54.762;56.068;2022-10-31T11:31:05;7.20;;;4.50;;
29634;SDS011;16557;54.762;56.068;2022-10-31T11:33:46;5.90;;;4.03;;
29634;SDS011;16557;54.762;56.068;2022-10-31T11:36:26;7.33;;;4.53;;
29634;SDS011;16557;54.762;56.068;2022-10-31T11:38:58;10.38;;;4.35;;
29634;SDS011;16557;54.762;56.068;2022-10-31T11:41:39;7.40;;;4.30;;
29634;SDS011;16557;54.762;56.068;2022-10-31T11:46:57;6.22;;;4.00;;
29634;SDS011;16557;54.762;56.068;2022-10-31T11:49:37;8.33;;;4.05;;
29634;SDS011;16557;54.762;56.068;2022-10-31T11:52:16;10.00;;;5.10;;
29634;SDS011;16557;54.762;56.068;2022-10-31T11:57:31;5.15;;;3.45;;
29634;SDS011;16557;54.762;56.068;2022-10-31T12:00:03;6.67;;;4.25;;
29634;SDS011;16557;54.762;56.068;2022-10-31T12:02:34;5.03;;;3.42;;
29634;SDS011;16557;54.762;56.068;2022-10-31T12:05:08;5.80;;;3.58;;
29634;SDS011;16557;54.762;56.068;2022-10-31T12:07:39;5.55;;;3.62;;
29634;SDS011;16557;54.762;56.068;2022-10-31T12:10:11;9.23;;;4.67;;
29634;SDS011;16557;54.762;56.068;2022-10-31T12:12:44;6.20;;;4.22;;
29634;SDS011;16557;54.762;56.068;2022-10-31T12:15:35;7.12;;;4.55;;
29634;SDS011;16557;54.762;56.068;2022-10-31T12:34:24;9.43;;;6.25;;
29634;SDS011;16557;54.762;56.068;2022-10-31T12:36:57;7.70;;;5.60;;
29634;SDS011;16557;54.762;56.068;2022-10-31T12:47:44;12.20;;;8.55;;
29634;SDS011;16557;54.762;56.068;2022-10-31T12:53:19;16.93;;;10.03;;
29634;SDS011;16557;54.762;56.068;2022-10-31T12:58:33;8.93;;;6.35;;
29634;SDS011;16557;54.762;56.068;2022-10-31T13:01:10;11.78;;;7.42;;
29634;SDS011;16557;54.762;56.068;2022-10-31T13:03:53;11.40;;;6.05;;
29634;SDS011;16557;54.762;56.068;2022-10-31T13:06:47;7.87;;;4.25;;
29634;SDS011;16557;54.762;56.068;2022-10-31T13:09:20;6.45;;;4.37;;
29634;SDS011;16557;54.762;56.068;2022-10-31T13:12:02;5.08;;;3.40;;
29634;SDS011;16557;54.762;56.068;2022-10-31T13:14:33;6.20;;;3.58;;
29634;SDS011;16557;54.762;56.068;2022-10-31T13:19:56;5.12;;;2.85;;
29634;SDS011;16557;54.762;56.068;2022-10-31T13:22:27;5.15;;;3.47;;
29634;SDS011;16557;54.762;56.068;2022-10-31T13:24:59;5.28;;;3.98;;
29634;SDS011;16557;54.762;56.068;2022-10-31T13:30:37;7.58;;;5.45;;
29634;SDS011;16557;54.762;56.068;2022-10-31T13:33:03;6.50;;;5.05;;
29634;SDS011;16557;54.762;56.068;2022-10-31T13:35:52;6.90;;;5.00;;
29634;SDS011;16557;54.762;56.068;2022-10-31T13:38:30;5.65;;;5.05;;
29634;SDS011;16557;54.762;56.068;2022-10-31T13:41:30;7.35;;;5.28;;
29634;SDS011;16557;54.762;56.068;2022-10-31T13:46:53;5.50;;;4.17;;
29634;SDS011;16557;54.762;56.068;2022-10-31T13:54:43;9.03;;;6.87;;
29634;SDS011;16557;54.762;56.068;2022-10-31T13:59:52;9.90;;;8.65;;
29634;SDS011;16557;54.762;56.068;2022-10-31T14:02:25;7.08;;;4.58;;
29634;SDS011;16557;54.762;56.068;2022-10-31T14:05:06;2.58;;;1.75;;
29634;SDS011;16557;54.762;56.068;2022-10-31T14:07:31;1.77;;;1.50;;
29634;SDS011;16557;54.762;56.068;2022-10-31T14:10:16;3.35;;;1.80;;
29634;SDS011;16557;54.762;56.068;2022-10-31T14:15:34;1.87;;;1.32;;
29634;SDS011;16557;54.762;56.068;2022-10-31T14:18:05;3.75;;;1.62;;
29634;SDS011;16557;54.762;56.068;2022-10-31T14:26:17;3.47;;;1.25;;
29634;SDS011;16557;54.762;56.068;2022-10-31T14:28:57;3.35;;;1.35;;
29634;SDS011;16557;54.762;56.068;2022-10-31T14:34:17;1.82;;;0.93;;
29634;SDS011;16557;54.762;56.068;2022-10-31T14:42:39;2.33;;;1.10;;
29634;SDS011;16557;54.762;56.068;2022-10-31T14:50:51;3.08;;;1.07;;
29634;SDS011;16557;54.762;56.068;2022-10-31T14:53:40;1.17;;;0.60;;
29634;SDS011;16557;54.762;56.068;2022-10-31T14:56:26;4.00;;;0.50;;
29634;SDS011;16557;54.762;56.068;2022-10-31T14:59:00;1.52;;;0.75;;
29634;SDS011;16557;54.762;56.068;2022-10-31T15:01:31;1.35;;;0.53;;
29634;SDS011;16557;54.762;56.068;2022-10-31T15:04:09;2.35;;;0.70;;
29634;SDS011;16557;54.762;56.068;2022-10-31T15:06:41;1.65;;;0.50;;
29634;SDS011;16557;54.762;56.068;2022-10-31T15:09:25;3.05;;;2.00;;
29634;SDS011;16557;54.762;56.068;2022-10-31T15:12:00;1.65;;;0.80;;
29634;SDS011;16557;54.762;56.068;2022-10-31T15:14:31;1.45;;;0.90;;
29634;SDS011;16557;54.762;56.068;2022-10-31T15:17:01;2.30;;;0.90;;
29634;SDS011;16557;54.762;56.068;2022-10-31T15:19:32;3.47;;;1.22;;
29634;SDS011;16557;54.762;56.068;2022-10-31T15:22:03;0.93;;;0.70;;
29634;SDS011;16557;54.762;56.068;2022-10-31T15:24:33;2.15;;;1.17;;
29634;SDS011;16557;54.762;56.068;2022-10-31T15:27:04;1.10;;;0.88;;
29634;SDS011;16557;54.762;56.068;2022-10-31T15:29:34;1.27;;;0.70;;
29634;SDS011;16557;54.762;56.068;2022-10-31T15:32:18;1.32;;;0.80;;
29634;SDS011;16557;54.762;56.068;2022-10-31T15:37:16;1.00;;;0.70;;
29634;SDS011;16557;54.762;56.068;2022-10-31T15:39:48;5.50;;;3.08;;
29634;SDS011;16557;54.762;56.068;2022-10-31T15:42:22;4.70;;;2.45;;
29634;SDS011;16557;54.762;56.068;2022-10-31T15:45:16;2.52;;;1.12;;
29634;SDS011;16557;54.762;56.068;2022-10-31T15:50:35;1.27;;;0.93;;
29634;SDS011;16557;54.762;56.068;2022-10-31T15:55:55;2.00;;;1.25;;
29634;SDS011;16557;54.762;56.068;2022-10-31T15:58:26;1.87;;;1.25;;
29634;SDS011;16557;54.762;56.068;2022-10-31T16:00:59;1.70;;;1.05;;
29634;SDS011;16557;54.762;56.068;2022-10-31T16:03:33;1.82;;;0.90;;
29634;SDS011;16557;54.762;56.068;2022-10-31T16:06:03;1.80;;;1.00;;
29634;SDS011;16557;54.762;56.068;2022-10-31T16:08:34;2.30;;;1.52;;
29634;SDS011;16557;54.762;56.068;2022-10-31T16:13:51;0.82;;;0.68;;
29634;SDS011;16557;54.762;56.068;2022-10-31T16:16:22;1.27;;;1.07;;
29634;SDS011;16557;54.762;56.068;2022-10-31T16:18:51;6.20;;;3.27;;
29634;SDS011;16557;54.762;56.068;2022-10-31T16:21:25;6.42;;;4.45;;
29634;SDS011;16557;54.762;56.068;2022-10-31T16:24:10;2.35;;;1.42;;
29634;SDS011;16557;54.762;56.068;2022-10-31T16:26:48;3.45;;;1.15;;
29634;SDS011;16557;54.762;56.068;2022-10-31T16:29:32;2.17;;;1.55;;
29634;SDS011;16557;54.762;56.068;2022-10-31T16:31:53;1.90;;;1.20;;
29634;SDS011;16557;54.762;56.068;2022-10-31T16:34:23;2.05;;;1.55;;
29634;SDS011;16557;54.762;56.068;2022-10-31T16:36:53;2.08;;;1.22;;
29634;SDS011;16557;54.762;56.068;2022-10-31T16:39:22;2.10;;;1.37;;
29634;SDS011;16557;54.762;56.068;2022-10-31T16:41:55;1.67;;;1.22;;
29634;SDS011;16557;54.762;56.068;2022-10-31T16:44:25;3.60;;;2.08;;
29634;SDS011;16557;54.762;56.068;2022-10-31T16:47:07;3.98;;;2.22;;
29634;SDS011;16557;54.762;56.068;2022-10-31T16:49:35;1.27;;;0.80;;
29634;SDS011;16557;54.762;56.068;2022-10-31T16:52:05;1.20;;;0.70;;
29634;SDS011;16557;54.762;56.068;2022-10-31T16:54:35;1.67;;;1.00;;
29634;SDS011;16557;54.762;56.068;2022-10-31T16:57:04;1.80;;;1.10;;
29634;SDS011;16557;54.762;56.068;2022-10-31T16:59:34;1.98;;;1.10;;
29634;SDS011;16557;54.762;56.068;2022-10-31T17:02:03;1.90;;;1.10;;
29634;SDS011;16557;54.762;56.068;2022-10-31T17:04:34;1.98;;;0.75;;
29634;SDS011;16557;54.762;56.068;2022-10-31T17:07:03;2.80;;;1.82;;
29634;SDS011;16557;54.762;56.068;2022-10-31T17:09:32;2.77;;;1.40;;
29634;SDS011;16557;54.762;56.068;2022-10-31T17:12:02;2.55;;;1.90;;
29634;SDS011;16557;54.762;56.068;2022-10-31T17:14:31;2.47;;;1.72;;
29634;SDS011;16557;54.762;56.068;2022-10-31T17:17:01;3.40;;;1.55;;
29634;SDS011;16557;54.762;56.068;2022-10-31T17:19:30;1.25;;;0.90;;
29634;SDS011;16557;54.762;56.068;2022-10-31T17:22:01;2.17;;;1.12;;
29634;SDS011;16557;54.762;56.068;2022-10-31T17:24:30;2.77;;;1.00;;
29634;SDS011;16557;54.762;56.068;2022-10-31T17:26:59;2.30;;;1.10;;
29634;SDS011;16557;54.762;56.068;2022-10-31T17:29:28;1.70;;;0.93;;
29634;SDS011;16557;54.762;56.068;2022-10-31T17:31:58;0.78;;;0.60;;
29634;SDS011;16557;54.762;56.068;2022-10-31T17:34:29;1.35;;;0.70;;
29634;SDS011;16557;54.762;56.068;2022-10-31T17:36:58;1.75;;;0.88;;
29634;SDS011;16557;54.762;56.068;2022-10-31T17:39:28;7.28;;;3.50;;
29634;SDS011;16557;54.762;56.068;2022-10-31T17:41:59;1.52;;;1.22;;
29634;SDS011;16557;54.762;56.068;2022-10-31T17:44:28;4.58;;;1.02;;
29634;SDS011;16557;54.762;56.068;2022-10-31T17:46:57;3.33;;;1.17;;
29634;SDS011;16557;54.762;56.068;2022-10-31T17:49:26;2.05;;;0.60;;
29634;SDS011;16557;54.762;56.068;2022-10-31T17:51:55;2.15;;;0.70;;